Time;durP1;ratioP1;P1;durP2;ratioP2;P2;SDS_P1;SDS_P2;PMS_P1;PMS_P2;Temp;Humidity;BMP_temperature;BMP_pressure;BME280_temperature;BME280_humidity;BME280_pressure;Samples;Min_cycle;Max_cycle;Signal;HPM_P1;HPM_P2
2020/12/08 00:00:44;623896.00;2.08;1075.50;0.00;0.00;0.62;;;;;8.60;1.00;;;;;;2251824;61;2011;-89
2020/12/08 00:03:10;657776.00;2.19;1134.09;0.00;0.00;0.62;;;;;9.10;1.00;;;;;;2251985;61;1127;-89
2020/12/08 00:05:37;599018.00;2.00;1032.52;0.00;0.00;0.62;;;;;9.00;1.00;;;;;;2251909;61;1130;-89
2020/12/08 00:08:05;573508.00;1.91;988.50;0.00;0.00;0.62;;;;;8.80;1.00;;;;;;2259850;61;1049;-89
2020/12/08 00:10:32;522991.00;1.74;901.42;0.00;0.00;0.62;;;;;8.60;1.00;;;;;;2259717;61;1414;-89
2020/12/08 00:12:58;645263.00;2.15;1112.44;0.00;0.00;0.62;;;;;8.10;1.00;;;;;;2259565;61;1102;-89
2020/12/08 00:15:25;595682.00;1.99;1026.76;0.00;0.00;0.62;;;;;7.70;1.00;;;;;;2259354;61;1160;-88
2020/12/08 00:17:53;650166.00;2.17;1120.92;0.00;0.00;0.62;;;;;8.10;1.00;;;;;;2259400;61;1129;-88
2020/12/08 00:20:20;595828.00;1.99;1027.02;0.00;0.00;0.62;;;;;8.30;1.00;;;;;;2259103;61;1946;-88
2020/12/08 00:22:47;708564.00;2.36;1222.09;0.00;0.00;0.62;;;;;8.90;1.00;;;;;;2255146;61;1197;-88
2020/12/08 00:25:15;739699.00;2.47;1276.15;12809.00;0.04;22.82;;;;;8.90;1.00;;;;;;2257090;61;1574;-90
2020/12/08 00:27:41;547840.00;1.83;944.24;0.00;0.00;0.62;;;;;9.40;1.00;;;;;;2267484;61;963;-89
2020/12/08 00:30:10;638493.00;2.13;1100.73;0.00;0.00;0.62;;;;;9.80;1.00;;;;;;2258974;61;1375;-88
2020/12/08 00:32:39;516002.00;1.72;889.38;0.00;0.00;0.62;;;;;10.20;1.00;;;;;;2259222;61;1114;-89
2020/12/08 00:35:07;523846.00;1.75;902.89;0.00;0.00;0.62;;;;;10.00;1.00;;;;;;2258998;61;1278;-89
2020/12/08 00:37:34;364744.00;1.22;629.20;0.00;0.00;0.62;;;;;9.70;1.00;;;;;;2256248;61;1065;-89
2020/12/08 00:40:01;572263.00;1.91;986.35;0.00;0.00;0.62;;;;;9.40;1.00;;;;;;2259411;61;1914;-89
2020/12/08 00:42:28;637408.00;2.12;1098.86;0.00;0.00;0.62;;;;;9.40;1.00;;;;;;2259076;61;1033;-88
2020/12/08 00:44:55;775311.00;2.58;1338.10;0.00;0.00;0.62;;;;;9.80;1.00;;;;;;2256723;61;1133;-89
2020/12/08 00:47:21;663249.00;2.21;1143.56;0.00;0.00;0.62;;;;;9.90;1.00;;;;;;2257693;61;1111;-89
2020/12/08 00:49:48;719033.00;2.40;1240.26;0.00;0.00;0.62;;;;;9.60;1.00;;;;;;2264597;61;1089;-88
2020/12/08 00:52:15;742633.00;2.48;1281.25;0.00;0.00;0.62;;;;;9.50;1.00;;;;;;2251308;61;1460;-88
2020/12/08 00:54:41;592370.00;1.97;1021.05;0.00;0.00;0.62;;;;;9.50;1.00;;;;;;2263130;61;1002;-89
2020/12/08 00:57:08;739276.00;2.46;1275.42;10345.00;0.03;18.55;;;;;9.40;1.00;;;;;;2263299;61;1116;-89
2020/12/08 00:59:34;820407.00;2.73;1416.74;0.00;0.00;0.62;;;;;9.60;1.00;;;;;;2263176;61;1996;-89
2020/12/08 01:02:01;801666.00;2.67;1384.03;0.00;0.00;0.62;;;;;10.00;1.00;;;;;;2259820;61;1374;-89
2020/12/08 01:04:28;617786.00;2.06;1064.94;0.00;0.00;0.62;;;;;10.20;1.00;;;;;;2263149;61;1156;-89
2020/12/08 01:06:54;592435.00;1.97;1021.16;0.00;0.00;0.62;;;;;10.60;1.00;;;;;;2259376;61;1097;-89
2020/12/08 01:09:22;526626.00;1.76;907.68;0.00;0.00;0.62;;;;;10.70;1.00;;;;;;2250963;61;1054;-89
2020/12/08 01:11:48;659121.00;2.20;1136.42;0.00;0.00;0.62;;;;;10.30;1.00;;;;;;2243045;61;1428;-88
2020/12/08 01:14:15;485830.00;1.62;837.43;0.00;0.00;0.62;;;;;10.20;1.00;;;;;;2238640;61;1169;-89
2020/12/08 01:16:42;650408.00;2.17;1121.34;0.00;0.00;0.62;;;;;10.30;1.00;;;;;;2235180;62;1107;-89
2020/12/08 01:19:08;463320.00;1.54;798.70;0.00;0.00;0.62;;;;;10.30;1.00;;;;;;2235534;61;1925;-89
2020/12/08 01:21:35;562928.00;1.88;970.25;0.00;0.00;0.62;;;;;10.20;1.00;;;;;;2245293;61;1293;-89
2020/12/08 01:24:02;752070.00;2.51;1297.66;0.00;0.00;0.62;;;;;10.30;1.00;;;;;;2245901;61;1141;-88
2020/12/08 01:26:29;830254.00;2.77;1433.94;6948.00;0.02;12.66;;;;;10.30;1.00;;;;;;2243712;61;1167;-89
2020/12/08 01:28:56;704895.00;2.35;1215.73;0.00;0.00;0.62;;;;;10.40;1.00;;;;;;2251848;61;1052;-89
2020/12/08 01:31:30;684558.00;2.28;1180.47;0.00;0.00;0.62;;;;;10.80;1.00;;;;;;2251722;61;1325;-89
2020/12/08 01:33:56;674030.00;2.25;1162.23;0.00;0.00;0.62;;;;;10.70;1.00;;;;;;2251646;61;1039;-88
2020/12/08 01:36:23;427347.00;1.42;736.82;0.00;0.00;0.62;;;;;10.70;1.00;;;;;;2257678;61;990;-89
2020/12/08 01:38:51;117312000.00;391.04;65396576.00;0.00;0.00;0.62;;;;;11.10;1.00;;;;;;2264702;61;1064;-89
2020/12/08 01:41:17;709293.00;2.36;1223.36;0.00;0.00;0.62;;;;;11.30;1.00;;;;;;2251595;61;1929;-89
2020/12/08 01:43:49;680078.00;2.27;1172.71;0.00;0.00;0.62;;;;;11.30;1.00;;;;;;2261375;61;989;-91
2020/12/08 01:46:18;675703.00;2.25;1165.13;0.00;0.00;0.62;;;;;10.60;1.00;;;;;;2251730;61;1045;-88
2020/12/08 01:48:45;570500.00;1.90;983.31;0.00;0.00;0.62;;;;;10.70;1.00;;;;;;2250190;61;1072;-89
2020/12/08 01:51:12;490105.00;1.63;844.79;0.00;0.00;0.62;;;;;10.30;1.00;;;;;;2251155;61;1271;-89
2020/12/08 01:53:41;535401.00;1.78;922.80;0.00;0.00;0.62;;;;;10.20;1.00;;;;;;2250694;61;1359;-89
2020/12/08 01:56:09;605184.00;2.02;1043.17;0.00;0.00;0.62;;;;;10.30;1.00;;;;;;2246937;61;1141;-88
2020/12/08 01:58:35;687447.00;2.29;1185.48;0.00;0.00;0.62;;;;;10.60;1.00;;;;;;2251064;61;1067;-89
2020/12/08 02:01:03;553561.00;1.85;954.10;0.00;0.00;0.62;;;;;10.80;1.00;;;;;;2251775;61;1937;-90
2020/12/08 02:03:30;588707.00;1.96;1014.72;0.00;0.00;0.62;;;;;11.00;1.00;;;;;;2250917;61;1153;-89
2020/12/08 02:05:57;622952.00;2.08;1073.87;0.00;0.00;0.62;;;;;11.30;1.00;;;;;;2246492;62;1066;-89
2020/12/08 02:08:27;423643.00;1.41;730.45;0.00;0.00;0.62;;;;;11.50;1.00;;;;;;2246521;62;1064;-89
2020/12/08 02:10:54;485475.00;1.62;836.82;0.00;0.00;0.62;;;;;11.70;1.00;;;;;;2249910;61;1263;-88
2020/12/08 02:13:20;608309.00;2.03;1048.57;0.00;0.00;0.62;;;;;11.80;1.00;;;;;;2260627;61;1136;-89
2020/12/08 02:15:47;116890944.00;389.64;64694316.00;0.00;0.00;0.62;;;;;11.70;1.00;;;;;;2267164;61;1145;-89
2020/12/08 02:18:15;621651.00;2.07;1071.62;12096.00;0.04;21.58;;;;;11.20;1.00;;;;;;2260577;61;1236;-89
2020/12/08 02:20:43;526817.00;1.76;908.01;0.00;0.00;0.62;;;;;11.30;1.00;;;;;;2267096;61;1923;-89
2020/12/08 02:23:10;511472.00;1.70;881.58;0.00;0.00;0.62;;;;;11.20;1.00;;;;;;2265045;61;1105;-89
2020/12/08 02:25:41;479718.00;1.60;826.91;0.00;0.00;0.62;;;;;11.40;1.00;;;;;;2251369;61;1118;-89
2020/12/08 02:28:08;633400.00;2.11;1091.93;0.00;0.00;0.62;;;;;11.30;1.00;;;;;;2250918;61;1003;-88
2020/12/08 02:30:35;488555.00;1.63;842.12;0.00;0.00;0.62;;;;;11.50;1.00;;;;;;2247247;61;1313;-88
2020/12/08 02:33:02;695520.00;2.32;1199.47;0.00;0.00;0.62;;;;;11.70;1.00;;;;;;2250520;61;1144;-88
2020/12/08 02:35:28;665219.00;2.22;1146.98;15563.00;0.05;27.59;;;;;11.90;1.00;;;;;;2262750;61;1063;-89
2020/12/08 02:37:56;658061.00;2.19;1134.58;0.00;0.00;0.62;;;;;11.80;1.00;;;;;;2262923;61;1172;-88
2020/12/08 02:40:22;597927.00;1.99;1030.64;0.00;0.00;0.62;;;;;11.70;1.00;;;;;;2262695;61;2004;-89
2020/12/08 02:42:49;575915.00;1.92;992.65;0.00;0.00;0.62;;;;;12.00;1.00;;;;;;2260565;61;1022;-89
2020/12/08 02:45:15;514349.00;1.71;886.53;0.00;0.00;0.62;;;;;12.10;1.00;;;;;;2259232;61;1053;-89
2020/12/08 02:47:42;408339.00;1.36;704.14;0.00;0.00;0.62;;;;;11.90;1.00;;;;;;2248257;61;1188;-89
2020/12/08 02:50:08;610805.00;2.04;1052.88;0.00;0.00;0.62;;;;;11.20;1.00;;;;;;2255294;61;1376;-88
2020/12/08 02:52:35;599920.00;2.00;1034.08;0.00;0.00;0.62;;;;;11.10;1.00;;;;;;2253408;61;1048;-88
2020/12/08 02:55:02;616866.00;2.06;1063.35;0.00;0.00;0.62;;;;;11.20;1.00;;;;;;2242516;62;1165;-89
2020/12/08 02:57:29;293923.00;0.98;507.47;0.00;0.00;0.62;;;;;11.30;1.00;;;;;;2242501;62;1066;-88
2020/12/08 02:59:55;507074.00;1.69;874.00;0.00;0.00;0.62;;;;;11.40;1.00;;;;;;2242349;62;1932;-89
2020/12/08 03:02:22;614812.00;2.05;1059.80;0.00;0.00;0.62;;;;;11.60;1.00;;;;;;2243219;61;1376;-89
2020/12/08 03:04:48;594169.00;1.98;1024.15;0.00;0.00;0.62;;;;;11.80;1.00;;;;;;2250630;61;1660;-89
2020/12/08 03:07:15;583649.00;1.95;1006.00;0.00;0.00;0.62;;;;;11.50;1.00;;;;;;2251117;61;1246;-89
2020/12/08 03:09:41;672336.00;2.24;1159.30;0.00;0.00;0.62;;;;;10.50;1.00;;;;;;2262961;61;1276;-88
2020/12/08 03:12:09;812507.00;2.71;1402.94;0.00;0.00;0.62;;;;;9.60;1.00;;;;;;2254699;61;1442;-88
2020/12/08 03:14:35;791303.00;2.64;1365.96;0.00;0.00;0.62;;;;;8.80;1.00;;;;;;2254941;61;1211;-88
2020/12/08 03:17:02;880931.00;2.94;1522.65;0.00;0.00;0.62;;;;;8.70;1.00;;;;;;2246779;62;1080;-89
2020/12/08 03:19:28;643879.00;2.15;1110.05;0.00;0.00;0.62;;;;;8.40;1.00;;;;;;2246928;62;2014;-89
2020/12/08 03:21:55;928536.00;3.10;1606.29;0.00;0.00;0.62;;;;;8.20;1.00;;;;;;2246969;62;1441;-89
2020/12/08 03:24:21;898263.00;2.99;1553.07;28905.00;0.10;50.69;;;;;8.60;1.00;;;;;;2243109;62;1137;-88
2020/12/08 03:26:48;833077.00;2.78;1438.87;0.00;0.00;0.62;;;;;9.10;1.00;;;;;;2247313;61;1071;-89
2020/12/08 03:29:16;585406.00;1.95;1009.03;4519.00;0.02;8.45;;;;;9.90;1.00;;;;;;2243278;61;1100;-87
2020/12/08 03:31:42;851096.00;2.84;1470.39;0.00;0.00;0.62;;;;;10.50;1.00;;;;;;2238672;62;1357;-88
2020/12/08 03:34:09;728639.00;2.43;1256.94;0.00;0.00;0.62;;;;;10.80;1.00;;;;;;2243396;61;1196;-88
2020/12/08 03:36:35;916657.00;3.06;1585.39;0.00;0.00;0.62;;;;;9.70;1.00;;;;;;2260659;61;1098;-88
2020/12/08 03:39:02;869295.00;2.90;1502.25;0.00;0.00;0.62;;;;;9.30;1.00;;;;;;2260509;61;1144;-88
2020/12/08 03:41:28;647001.00;2.16;1115.45;8396.00;0.03;15.17;;;;;9.80;1.00;;;;;;2256838;61;2026;-88
2020/12/08 03:43:55;911007.00;3.04;1575.46;0.00;0.00;0.62;;;;;10.00;1.00;;;;;;2250407;61;1030;-88
2020/12/08 03:46:25;777591.00;2.59;1342.07;0.00;0.00;0.62;;;;;9.60;1.00;;;;;;2250230;61;1079;-88
2020/12/08 03:48:53;671895.00;2.24;1158.53;0.00;0.00;0.62;;;;;9.80;1.00;;;;;;2245769;62;1193;-88
2020/12/08 03:51:22;820302.00;2.73;1416.55;0.00;0.00;0.62;;;;;10.20;1.00;;;;;;2242531;62;1349;-88
2020/12/08 03:53:49;679245.00;2.26;1171.27;0.00;0.00;0.62;;;;;10.20;1.00;;;;;;2233684;62;1203;-88
2020/12/08 03:56:17;572460.00;1.91;986.69;0.00;0.00;0.62;;;;;10.50;1.00;;;;;;2230984;62;1047;-88
2020/12/08 03:58:44;694434.00;2.31;1197.59;0.00;0.00;0.62;;;;;10.00;1.00;;;;;;2234201;62;1073;-88
2020/12/08 04:01:15;743632.00;2.48;1282.99;19178.00;0.06;33.85;;;;;9.20;1.00;;;;;;2234028;62;2027;-88
2020/12/08 04:03:43;656375.00;2.19;1131.67;0.00;0.00;0.62;;;;;9.50;1.00;;;;;;2234067;62;1076;-89
2020/12/08 04:06:11;578279.00;1.93;996.73;0.00;0.00;0.62;;;;;9.30;1.00;;;;;;2228891;62;1138;-88
2020/12/08 04:08:38;634579.00;2.12;1093.97;0.00;0.00;0.62;;;;;8.70;1.00;;;;;;2242076;62;1075;-88
2020/12/08 04:11:05;673069.00;2.24;1160.57;0.00;0.00;0.62;;;;;8.80;1.00;;;;;;2244051;61;1308;-88
2020/12/08 04:13:31;661496.00;2.20;1140.53;0.00;0.00;0.62;;;;;9.30;1.00;;;;;;2247030;61;1162;-88
2020/12/08 04:15:58;665450.00;2.22;1147.38;24034.00;0.08;42.26;;;;;9.30;1.00;;;;;;2241689;62;1045;-88
2020/12/08 04:18:24;710203.00;2.37;1224.94;13069.00;0.04;23.27;;;;;10.10;1.00;;;;;;2241791;62;1061;-89
2020/12/08 04:20:51;659118.00;2.20;1136.41;0.00;0.00;0.62;;;;;10.60;1.00;;;;;;2238619;62;2025;-88
2020/12/08 04:23:19;625690.00;2.09;1078.60;0.00;0.00;0.62;;;;;10.80;1.00;;;;;;2241782;62;1067;-88
2020/12/08 04:25:46;514181.00;1.71;886.24;0.00;0.00;0.62;;;;;11.10;1.00;;;;;;2242251;62;1104;-88
2020/12/08 04:28:13;685485.00;2.28;1182.08;0.00;0.00;0.62;;;;;10.90;1.00;;;;;;2252277;61;1154;-88
2020/12/08 04:30:40;652494.00;2.17;1124.95;0.00;0.00;0.62;;;;;10.90;1.00;;;;;;2242303;62;1396;-88
2020/12/08 04:33:08;447784.00;1.49;771.97;3494.00;0.01;6.68;;;;;11.00;1.00;;;;;;2253274;61;1118;-88
2020/12/08 04:35:35;645049.00;2.15;1112.07;0.00;0.00;0.62;;;;;10.90;1.00;;;;;;2246629;61;1065;-88
2020/12/08 04:38:02;628518.00;2.10;1083.49;60284.00;0.20;104.97;;;;;10.20;1.00;;;;;;2249711;61;1243;-88
2020/12/08 04:40:29;641010.00;2.14;1105.09;0.00;0.00;0.62;;;;;9.60;1.00;;;;;;2249852;61;2012;-88
2020/12/08 04:42:55;595134.00;1.98;1025.82;0.00;0.00;0.62;;;;;8.70;1.00;;;;;;2249879;61;1233;-88
2020/12/08 04:45:23;762459.00;2.54;1315.73;0.00;0.00;0.62;;;;;8.20;1.00;;;;;;2250173;61;1726;-88
2020/12/08 04:47:50;733071.00;2.44;1264.64;0.00;0.00;0.62;;;;;8.60;1.00;;;;;;2251133;61;1049;-88
2020/12/08 04:50:19;729416.00;2.43;1258.29;0.00;0.00;0.62;;;;;8.40;1.00;;;;;;2250774;61;1463;-89
2020/12/08 04:52:50;778533.00;2.60;1343.71;0.00;0.00;0.62;;;;;7.60;1.00;;;;;;2250388;61;1192;-88
2020/12/08 04:55:19;791116.00;2.64;1365.63;0.00;0.00;0.62;;;;;7.10;1.00;;;;;;2250400;61;1067;-89
2020/12/08 04:57:46;644109.00;2.15;1110.45;0.00;0.00;0.62;;;;;6.90;1.00;;;;;;2249882;61;1118;-88
2020/12/08 05:00:14;694096.00;2.31;1197.00;0.00;0.00;0.62;;;;;6.90;1.00;;;;;;2250213;61;1927;-89
2020/12/08 05:02:47;938515.00;3.13;1623.87;22024.00;0.07;38.77;;;;;6.90;1.00;;;;;;2250322;61;1521;-89
2020/12/08 05:05:15;479290.00;1.60;826.18;0.00;0.00;0.62;;;;;7.40;1.00;;;;;;2263409;61;1073;-89
2020/12/08 05:07:42;465382.00;1.55;802.24;0.00;0.00;0.62;;;;;7.90;1.00;;;;;;2249940;61;1055;-89
2020/12/08 05:10:09;456919.00;1.52;787.68;0.00;0.00;0.62;;;;;8.50;1.00;;;;;;2242743;61;1462;-89
2020/12/08 05:12:38;516938.00;1.72;890.99;0.00;0.00;0.62;;;;;9.10;1.00;;;;;;2249947;61;1128;-89
2020/12/08 05:15:10;391331.00;1.30;674.90;0.00;0.00;0.62;;;;;8.90;1.00;;;;;;2257825;61;1185;-89
2020/12/08 05:17:37;441130.00;1.47;760.53;0.00;0.00;0.62;;;;;8.70;1.00;;;;;;2258173;61;1112;-89
2020/12/08 05:20:05;454042.00;1.51;782.74;0.00;0.00;0.62;;;;;8.20;1.00;;;;;;2251201;61;1920;-89
2020/12/08 05:22:33;481464.00;1.60;829.92;0.00;0.00;0.62;;;;;8.80;1.00;;;;;;2258252;61;1099;-89
2020/12/08 05:25:10;470823.00;1.57;811.61;0.00;0.00;0.62;;;;;9.30;1.00;;;;;;2257884;61;1125;-89
2020/12/08 05:27:38;353060.00;1.18;609.12;0.00;0.00;0.62;;;;;9.60;1.00;;;;;;2254651;61;1250;-89
2020/12/08 05:30:06;388443.00;1.29;669.94;0.00;0.00;0.62;;;;;9.90;1.00;;;;;;2250306;61;1380;-87
2020/12/08 05:32:36;443673.00;1.48;764.90;0.00;0.00;0.62;;;;;10.30;1.00;;;;;;2248215;61;1138;-87
2020/12/08 05:35:06;293718.00;0.98;507.12;0.00;0.00;0.62;;;;;10.40;1.00;;;;;;2235734;62;1058;-88
2020/12/08 05:37:35;297031.00;0.99;512.82;0.00;0.00;0.62;;;;;10.50;1.00;;;;;;2238877;62;1085;-88
2020/12/08 05:40:04;120111696.00;400.37;70195824.00;0.00;0.00;0.62;;;;;10.00;1.00;;;;;;2242048;62;1928;-88
2020/12/08 05:42:33;472764.00;1.58;814.95;0.00;0.00;0.62;;;;;9.50;1.00;;;;;;2238946;62;1169;-88
2020/12/08 05:45:01;444016.00;1.48;765.49;0.00;0.00;0.62;;;;;9.80;1.00;;;;;;2255372;61;1149;-88
2020/12/08 05:47:27;427158.00;1.42;736.50;0.00;0.00;0.62;;;;;10.10;1.00;;;;;;2243859;61;1106;-88
2020/12/08 05:50:03;693199.00;2.31;1195.45;0.00;0.00;0.62;;;;;10.10;1.00;;;;;;2250767;61;1136;-88
2020/12/08 05:52:32;407511.00;1.36;702.72;0.00;0.00;0.62;;;;;9.80;1.00;;;;;;2249853;61;1261;-88
2020/12/08 05:55:07;244688.00;0.82;422.81;0.00;0.00;0.62;;;;;10.30;1.00;;;;;;2249902;61;1240;-88
2020/12/08 05:57:33;543306.00;1.81;936.42;0.00;0.00;0.62;;;;;10.30;1.00;;;;;;2250441;61;1125;-88
2020/12/08 06:00:01;547930.00;1.83;944.39;0.00;0.00;0.62;;;;;9.60;1.00;;;;;;2263110;61;2008;-88
2020/12/08 06:02:29;647782.00;2.16;1116.80;0.00;0.00;0.62;;;;;9.10;1.00;;;;;;2249700;61;1047;-88
2020/12/08 06:04:56;645738.00;2.15;1113.26;0.00;0.00;0.62;;;;;9.10;1.00;;;;;;2252176;61;1271;-88
2020/12/08 06:07:32;653265.00;2.18;1126.29;4616.00;0.02;8.62;;;;;9.80;1.00;;;;;;2252274;61;1014;-88
2020/12/08 06:10:07;322812.00;1.08;557.13;0.00;0.00;0.62;;;;;10.10;1.00;;;;;;2252225;61;997;-89
2020/12/08 06:12:35;437854.00;1.46;754.89;0.00;0.00;0.62;;;;;10.10;1.00;;;;;;2255087;61;1101;-89
2020/12/08 06:15:02;600768.00;2.00;1035.55;0.00;0.00;0.62;;;;;10.00;1.00;;;;;;2248558;61;1001;-90
2020/12/08 06:17:29;963196.00;3.21;1667.39;48338.00;0.16;84.31;;;;;10.20;1.00;;;;;;2252111;61;1040;-89
2020/12/08 06:19:56;1041752.00;3.47;1806.56;0.00;0.00;0.62;;;;;9.90;1.00;;;;;;2258492;61;2002;-88
2020/12/08 06:22:22;866048.00;2.89;1496.57;0.00;0.00;0.62;;;;;9.90;1.00;;;;;;2248489;61;1398;-89
2020/12/08 06:24:53;678760.00;2.26;1170.43;0.00;0.00;0.62;;;;;10.30;1.00;;;;;;2261858;61;1149;-89
2020/12/08 06:27:21;1004284.00;3.35;1740.06;105748.00;0.35;183.49;;;;;10.60;1.00;;;;;;2261817;61;1119;-90
2020/12/08 06:29:53;941581.00;3.14;1629.27;97555.00;0.33;169.35;;;;;10.90;1.00;;;;;;2251683;61;1138;-90
2020/12/08 06:32:25;624463.00;2.08;1076.48;0.00;0.00;0.62;;;;;10.70;1.00;;;;;;2261921;61;1311;-89
2020/12/08 06:35:01;800183.00;2.67;1381.44;0.00;0.00;0.62;;;;;10.70;1.00;;;;;;2251909;61;1115;-89
2020/12/08 06:37:28;622227.00;2.07;1072.61;0.00;0.00;0.62;;;;;10.60;1.00;;;;;;2245060;61;1065;-87
2020/12/08 06:40:08;534569.00;1.78;921.36;0.00;0.00;0.62;;;;;11.00;1.00;;;;;;2252134;61;2016;-88
2020/12/08 06:42:36;461731.00;1.54;795.96;0.00;0.00;0.62;;;;;11.30;1.00;;;;;;2251968;61;1063;-88
2020/12/08 06:45:11;461964.00;1.54;796.36;0.00;0.00;0.62;;;;;10.40;1.00;;;;;;2264888;61;934;-88
2020/12/08 06:47:40;542983.00;1.81;935.86;35328.00;0.12;61.80;;;;;9.50;1.00;;;;;;2252147;61;1118;-89
2020/12/08 06:50:19;451104.00;1.50;777.68;0.00;0.00;0.62;;;;;9.90;1.00;;;;;;2251651;61;1368;-89
2020/12/08 06:52:51;485974.00;1.62;837.68;0.00;0.00;0.62;;;;;10.20;1.00;;;;;;2252190;61;1069;-90
2020/12/08 06:55:17;411703.00;1.37;709.92;0.00;0.00;0.62;;;;;9.90;1.00;;;;;;2251675;61;975;-89
2020/12/08 06:57:44;490226.00;1.63;845.00;0.00;0.00;0.62;;;;;9.50;1.00;;;;;;2265011;61;953;-88
2020/12/08 07:00:11;568334.00;1.89;979.57;41321.00;0.14;72.17;;;;;9.60;1.00;;;;;;2251485;61;1920;-89
2020/12/08 07:02:48;511732.00;1.71;882.02;0.00;0.00;0.62;;;;;9.70;1.00;;;;;;2251446;61;1226;-90
2020/12/08 07:05:19;408518.00;1.36;704.45;0.00;0.00;0.62;;;;;9.90;1.00;;;;;;2251678;61;1182;-89
2020/12/08 07:07:46;392551.00;1.31;677.00;0.00;0.00;0.62;;;;;10.40;1.00;;;;;;2247579;61;978;-88
2020/12/08 07:10:13;374628.00;1.25;646.19;0.00;0.00;0.62;;;;;10.50;1.00;;;;;;2246169;62;1442;-87
2020/12/08 07:12:44;542284.00;1.81;934.66;0.00;0.00;0.62;;;;;10.60;1.00;;;;;;2245632;62;1069;-87
2020/12/08 07:15:17;541878.00;1.81;933.96;0.00;0.00;0.62;;;;;10.70;1.00;;;;;;2245158;62;1078;-87
2020/12/08 07:17:44;478261.00;1.59;824.40;0.00;0.00;0.62;;;;;10.50;1.00;;;;;;2243785;62;1784;-87
2020/12/08 07:20:11;390714.00;1.30;673.84;0.00;0.00;0.62;;;;;10.00;1.00;;;;;;2240873;62;1946;-86
2020/12/08 07:22:43;313237.00;1.04;540.67;0.00;0.00;0.62;;;;;9.50;1.00;;;;;;2241277;62;1039;-87
2020/12/08 07:25:11;369496.00;1.23;637.37;0.00;0.00;0.62;;;;;9.70;1.00;;;;;;2242159;61;1120;-87
2020/12/08 07:27:42;350831.00;1.17;605.29;0.00;0.00;0.62;;;;;10.00;1.00;;;;;;2245726;62;1251;-87
2020/12/08 07:30:09;490938.00;1.64;846.22;0.00;0.00;0.62;;;;;9.70;1.00;;;;;;2245396;61;1297;-87
2020/12/08 07:32:36;476201.00;1.59;820.86;0.00;0.00;0.62;;;;;8.90;1.00;;;;;;2239119;61;1053;-88
2020/12/08 07:35:05;539513.00;1.80;929.88;0.00;0.00;0.62;;;;;9.30;1.00;;;;;;2248194;61;1229;-87
2020/12/08 07:37:40;423393.00;1.41;730.02;0.00;0.00;0.62;;;;;9.80;1.00;;;;;;2248155;61;1100;-87
2020/12/08 07:40:09;376961.00;1.26;650.20;0.00;0.00;0.62;;;;;10.20;1.00;;;;;;2248494;61;2026;-87
2020/12/08 07:42:37;273524.00;0.91;472.40;0.00;0.00;0.62;;;;;10.50;1.00;;;;;;2245748;61;1090;-88
2020/12/08 07:45:08;304087.00;1.01;524.95;0.00;0.00;0.62;;;;;10.60;1.00;;;;;;2245035;61;1182;-87
2020/12/08 07:47:35;408466.00;1.36;704.36;0.00;0.00;0.62;;;;;10.80;1.00;;;;;;2251724;61;1068;-88
2020/12/08 07:50:02;418266.00;1.39;721.21;0.00;0.00;0.62;;;;;10.90;1.00;;;;;;2251943;61;1412;-88
2020/12/08 07:52:29;448980.00;1.50;774.03;0.00;0.00;0.62;;;;;10.90;1.00;;;;;;2255340;61;1078;-88
2020/12/08 07:54:56;411700.00;1.37;709.92;0.00;0.00;0.62;;;;;11.00;1.00;;;;;;2255346;61;1112;-88
2020/12/08 07:57:22;350787.00;1.17;605.21;0.00;0.00;0.62;;;;;11.00;1.00;;;;;;2255259;61;1114;-88
2020/12/08 07:59:49;117026576.00;390.09;64919984.00;0.00;0.00;0.62;;;;;11.00;1.00;;;;;;2255435;61;2014;-88
2020/12/08 08:02:15;495417.00;1.65;853.93;0.00;0.00;0.62;;;;;10.90;1.00;;;;;;2254712;61;1213;-87
2020/12/08 08:04:42;434308.00;1.45;748.79;0.00;0.00;0.62;;;;;11.00;1.00;;;;;;2253838;61;1150;-87
2020/12/08 08:07:09;450355.00;1.50;776.39;0.00;0.00;0.62;;;;;11.20;1.00;;;;;;2254729;61;1141;-87
2020/12/08 08:09:37;401946.00;1.34;693.15;0.00;0.00;0.62;;;;;11.00;1.00;;;;;;2255137;61;1074;-88
2020/12/08 08:12:04;373741.00;1.25;644.67;0.00;0.00;0.62;;;;;11.20;1.00;;;;;;2251488;61;1376;-88
2020/12/08 08:14:30;510008.00;1.70;879.06;0.00;0.00;0.62;;;;;11.10;1.00;;;;;;2251816;61;1697;-88
2020/12/08 08:16:57;401230.00;1.34;691.92;0.00;0.00;0.62;;;;;10.70;1.00;;;;;;2251258;61;1091;-88
2020/12/08 08:19:24;323838.00;1.08;558.89;0.00;0.00;0.62;;;;;10.60;1.00;;;;;;2259292;61;1153;-87
2020/12/08 08:21:50;474811.00;1.58;818.47;0.00;0.00;0.62;;;;;10.50;1.00;;;;;;2248656;61;2019;-87
2020/12/08 08:24:17;477874.00;1.59;823.74;26544.00;0.09;46.60;;;;;10.20;1.00;;;;;;2249338;61;1145;-88
2020/12/08 08:26:45;397628.00;1.33;685.73;0.00;0.00;0.62;;;;;9.80;1.00;;;;;;2258874;61;1070;-87
2020/12/08 08:29:11;466283.00;1.55;803.79;0.00;0.00;0.62;;;;;9.30;1.00;;;;;;2249817;61;1266;-87
2020/12/08 08:31:38;689460.00;2.30;1188.97;113276.00;0.38;196.48;;;;;9.80;1.00;;;;;;2249478;61;1331;-87
2020/12/08 08:34:08;380379.00;1.27;656.08;0.00;0.00;0.62;;;;;9.60;1.00;;;;;;2242674;61;1138;-87
2020/12/08 08:36:34;584548.00;1.95;1007.55;0.00;0.00;0.62;;;;;10.10;1.00;;;;;;2252213;61;1158;-87
2020/12/08 08:39:01;358511.00;1.20;618.49;0.00;0.00;0.62;;;;;10.50;1.00;;;;;;2254556;61;1229;-87
2020/12/08 08:41:28;557529.00;1.86;960.94;48391.00;0.16;84.40;;;;;11.10;1.00;;;;;;2265106;61;2018;-88
2020/12/08 08:43:55;996564.00;3.32;1726.39;42243.00;0.14;73.77;;;;;11.10;1.00;;;;;;2252496;61;1223;-87
2020/12/08 08:46:22;564173.00;1.88;972.40;0.00;0.00;0.62;;;;;10.70;1.00;;;;;;2244907;62;1053;-87
2020/12/08 08:48:49;553603.00;1.85;954.17;34426.00;0.11;60.24;;;;;10.50;1.00;;;;;;2241037;62;987;-87
2020/12/08 08:51:16;681123.00;2.27;1174.52;0.00;0.00;0.62;;;;;10.80;1.00;;;;;;2231178;62;1460;-87
2020/12/08 08:53:43;597427.00;1.99;1029.78;0.00;0.00;0.62;;;;;11.10;1.00;;;;;;2242999;61;1204;-87
2020/12/08 08:56:12;305005.00;1.02;526.52;0.00;0.00;0.62;;;;;11.20;1.00;;;;;;2243623;61;1289;-87
2020/12/08 08:58:39;473286.00;1.58;815.84;0.00;0.00;0.62;;;;;10.80;1.00;;;;;;2257208;61;1130;-87
2020/12/08 09:01:07;409466.00;1.36;706.08;0.00;0.00;0.62;;;;;10.70;1.00;;;;;;2243868;61;2029;-87
2020/12/08 09:03:34;491059.00;1.64;846.43;0.00;0.00;0.62;;;;;10.00;1.00;;;;;;2255607;61;1073;-87
2020/12/08 09:06:01;545273.00;1.82;939.81;0.00;0.00;0.62;;;;;9.70;1.00;;;;;;2239588;61;1162;-87
2020/12/08 09:08:28;411630.00;1.37;709.80;0.00;0.00;0.62;;;;;10.30;1.00;;;;;;2250222;61;1054;-86
2020/12/08 09:10:55;537694.00;1.79;926.75;25858.00;0.09;45.41;;;;;10.70;1.00;;;;;;2266095;61;1435;-87
2020/12/08 09:13:21;506269.00;1.69;872.62;20056.00;0.07;35.37;;;;;10.30;1.00;;;;;;2267696;61;1106;-87
2020/12/08 09:15:48;411276.00;1.37;709.19;0.00;0.00;0.62;;;;;10.10;1.00;;;;;;2267792;61;1688;-89
2020/12/08 09:18:16;522994.00;1.74;901.42;0.00;0.00;0.62;;;;;9.50;1.00;;;;;;2268064;61;1141;-88
2020/12/08 09:20:42;419817.00;1.40;723.88;0.00;0.00;0.62;;;;;9.50;1.00;;;;;;2265014;61;1923;-90
2020/12/08 09:23:09;479431.00;1.60;826.42;0.00;0.00;0.62;;;;;9.10;1.00;;;;;;2268117;61;1047;-89
2020/12/08 09:25:36;450105.00;1.50;775.96;0.00;0.00;0.62;;;;;8.90;1.00;;;;;;2267882;61;1145;-89
2020/12/08 09:28:02;485959.00;1.62;837.65;55060.00;0.18;95.94;;;;;8.50;1.00;;;;;;2266360;61;1109;-89
2020/12/08 09:30:29;414303.00;1.38;714.40;0.00;0.00;0.62;;;;;8.40;1.00;;;;;;2251715;61;1532;-89
2020/12/08 09:32:56;542445.00;1.81;934.94;0.00;0.00;0.62;;;;;7.90;1.00;;;;;;2251348;61;1552;-89
2020/12/08 09:35:23;541822.00;1.81;933.86;0.00;0.00;0.62;;;;;7.30;1.00;;;;;;2251513;61;1073;-88
2020/12/08 09:37:50;668715.00;2.23;1153.03;0.00;0.00;0.62;;;;;7.40;1.00;;;;;;2268102;61;1215;-90
2020/12/08 09:40:17;595663.00;1.99;1026.73;0.00;0.00;0.62;;;;;6.90;1.00;;;;;;2267980;61;2016;-89
2020/12/08 09:42:44;422525.00;1.41;728.53;0.00;0.00;0.62;;;;;6.30;1.00;;;;;;2268067;61;1017;-88
2020/12/08 09:45:12;474558.00;1.58;818.03;0.00;0.00;0.62;;;;;6.40;1.00;;;;;;2268004;61;1056;-87
2020/12/08 09:47:39;618527.00;2.06;1066.22;0.00;0.00;0.62;;;;;6.60;1.00;;;;;;2263855;61;1180;-88
2020/12/08 09:50:08;633844.00;2.11;1092.69;0.00;0.00;0.62;;;;;6.60;1.00;;;;;;2264065;61;1336;-88
2020/12/08 09:52:36;603707.00;2.01;1040.62;0.00;0.00;0.62;;;;;6.60;1.00;;;;;;2263967;61;1172;-89
2020/12/08 09:55:03;517383.00;1.72;891.76;0.00;0.00;0.62;;;;;6.00;1.00;;;;;;2260534;61;1062;-87
2020/12/08 09:57:30;713983.00;2.38;1231.50;0.00;0.00;0.62;;;;;6.00;1.00;;;;;;2243594;61;1146;-88